sensor_id;sensor_type;location;lat;lon;timestamp;pressure;altitude;pressure_sealevel;temperature;humidity
8641;BME280;4358;42.100;25.222;2023-01-29T00:00:53;100261.59;;;5.04;100.00
8641;BME280;4358;42.100;25.222;2023-01-29T00:03:20;100265.63;;;4.91;100.00
8641;BME280;4358;42.100;25.222;2023-01-29T00:05:46;100267.47;;;4.88;100.00
8641;BME280;4358;42.100;25.222;2023-01-29T00:08:13;100271.34;;;4.79;100.00
8641;BME280;4358;42.100;25.222;2023-01-29T00:10:40;100276.13;;;4.68;100.00
8641;BME280;4358;42.100;25.222;2023-01-29T00:13:07;100279.78;;;4.64;100.00
8641;BME280;4358;42.100;25.222;2023-01-29T00:15:34;100283.44;;;4.60;100.00
8641;BME280;4358;42.100;25.222;2023-01-29T00:18:02;100278.34;;;4.55;100.00
8641;BME280;4358;42.100;25.222;2023-01-29T00:20:29;100283.75;;;4.51;100.00
8641;BME280;4358;42.100;25.222;2023-01-29T00:22:56;100279.66;;;4.44;100.00
8641;BME280;4358;42.100;25.222;2023-01-29T00:25:23;100279.00;;;4.37;100.00
8641;BME280;4358;42.100;25.222;2023-01-29T00:27:50;100285.13;;;4.38;100.00
8641;BME280;4358;42.100;25.222;2023-01-29T00:30:17;100290.03;;;4.23;100.00
8641;BME280;4358;42.100;25.222;2023-01-29T00:32:45;100287.59;;;4.17;100.00
8641;BME280;4358;42.100;25.222;2023-01-29T00:35:13;100290.41;;;4.13;100.00
8641;BME280;4358;42.100;25.222;2023-01-29T00:37:40;100289.94;;;4.00;100.00
8641;BME280;4358;42.100;25.222;2023-01-29T00:40:09;100291.75;;;3.98;100.00
8641;BME280;4358;42.100;25.222;2023-01-29T00:42:36;100286.81;;;3.89;100.00
8641;BME280;4358;42.100;25.222;2023-01-29T00:45:20;100274.72;;;3.85;100.00
8641;BME280;4358;42.100;25.222;2023-01-29T00:47:48;100292.19;;;3.86;100.00
8641;BME280;4358;42.100;25.222;2023-01-29T00:50:16;100287.13;;;3.80;100.00
8641;BME280;4358;42.100;25.222;2023-01-29T00:52:43;100289.13;;;3.72;100.00
8641;BME280;4358;42.100;25.222;2023-01-29T00:55:10;100282.28;;;3.68;100.00
8641;BME280;4358;42.100;25.222;2023-01-29T00:57:38;100289.56;;;3.60;100.00
8641;BME280;4358;42.100;25.222;2023-01-29T01:00:07;100288.88;;;3.53;100.00
8641;BME280;4358;42.100;25.222;2023-01-29T01:02:35;100281.34;;;3.42;100.00
8641;BME280;4358;42.100;25.222;2023-01-29T01:05:20;100276.31;;;3.36;100.00
8641;BME280;4358;42.100;25.222;2023-01-29T01:07:49;100279.25;;;3.26;100.00
8641;BME280;4358;42.100;25.222;2023-01-29T01:10:18;100286.22;;;3.27;100.00
8641;BME280;4358;42.100;25.222;2023-01-29T01:12:53;100285.28;;;3.29;100.00
8641;BME280;4358;42.100;25.222;2023-01-29T01:15:21;100288.00;;;3.26;100.00
8641;BME280;4358;42.100;25.222;2023-01-29T01:17:51;100286.09;;;3.31;100.00
8641;BME280;4358;42.100;25.222;2023-01-29T01:20:19;100287.81;;;3.32;100.00
8641;BME280;4358;42.100;25.222;2023-01-29T01:22:47;100294.09;;;3.27;100.00
8641;BME280;4358;42.100;25.222;2023-01-29T01:25:14;100297.63;;;3.26;100.00
8641;BME280;4358;42.100;25.222;2023-01-29T01:27:41;100302.81;;;3.27;100.00
8641;BME280;4358;42.100;25.222;2023-01-29T01:30:11;100301.09;;;3.26;100.00
8641;BME280;4358;42.100;25.222;2023-01-29T01:32:38;100296.69;;;3.28;100.00
8641;BME280;4358;42.100;25.222;2023-01-29T01:35:06;100301.22;;;3.23;100.00
8641;BME280;4358;42.100;25.222;2023-01-29T01:37:35;100291.09;;;3.11;100.00
8641;BME280;4358;42.100;25.222;2023-01-29T01:40:04;100308.53;;;3.12;100.00
8641;BME280;4358;42.100;25.222;2023-01-29T01:42:37;100300.53;;;3.17;100.00
8641;BME280;4358;42.100;25.222;2023-01-29T01:45:07;100298.94;;;3.11;100.00
8641;BME280;4358;42.100;25.222;2023-01-29T01:47:37;100290.47;;;3.03;100.00
8641;BME280;4358;42.100;25.222;2023-01-29T01:50:09;100300.66;;;3.14;100.00
8641;BME280;4358;42.100;25.222;2023-01-29T01:52:41;100298.84;;;3.14;100.00
8641;BME280;4358;42.100;25.222;2023-01-29T01:55:12;100297.38;;;3.06;100.00
8641;BME280;4358;42.100;25.222;2023-01-29T01:57:42;100306.81;;;3.11;100.00
8641;BME280;4358;42.100;25.222;2023-01-29T02:00:14;100309.34;;;3.14;100.00
8641;BME280;4358;42.100;25.222;2023-01-29T02:02:43;100309.22;;;3.19;100.00
8641;BME280;4358;42.100;25.222;2023-01-29T02:05:29;100308.38;;;3.18;100.00
8641;BME280;4358;42.100;25.222;2023-01-29T02:08:19;100309.88;;;3.25;100.00
8641;BME280;4358;42.100;25.222;2023-01-29T02:11:06;100320.66;;;3.16;100.00
8641;BME280;4358;42.100;25.222;2023-01-29T02:13:34;100310.81;;;3.24;100.00
8641;BME280;4358;42.100;25.222;2023-01-29T02:16:01;100315.09;;;3.27;100.00
8641;BME280;4358;42.100;25.222;2023-01-29T02:18:28;100320.28;;;3.28;100.00
8641;BME280;4358;42.100;25.222;2023-01-29T02:21:20;100317.53;;;3.33;100.00
8641;BME280;4358;42.100;25.222;2023-01-29T02:24:16;100322.66;;;3.36;100.00
8641;BME280;4358;42.100;25.222;2023-01-29T02:27:02;100317.53;;;3.33;100.00
8641;BME280;4358;42.100;25.222;2023-01-29T02:29:38;100326.88;;;3.41;100.00
8641;BME280;4358;42.100;25.222;2023-01-29T02:32:14;100321.56;;;3.43;100.00
8641;BME280;4358;42.100;25.222;2023-01-29T02:34:51;100322.63;;;3.37;100.00
8641;BME280;4358;42.100;25.222;2023-01-29T02:37:38;100333.84;;;3.42;100.00
8641;BME280;4358;42.100;25.222;2023-01-29T02:40:13;100331.09;;;3.46;100.00
8641;BME280;4358;42.100;25.222;2023-01-29T02:42:49;100329.44;;;3.43;100.00
8641;BME280;4358;42.100;25.222;2023-01-29T02:45:23;100332.69;;;3.51;100.00
8641;BME280;4358;42.100;25.222;2023-01-29T02:47:56;100332.63;;;3.53;100.00
8641;BME280;4358;42.100;25.222;2023-01-29T02:50:28;100341.47;;;3.50;100.00
8641;BME280;4358;42.100;25.222;2023-01-29T02:53:00;100344.72;;;3.58;100.00
8641;BME280;4358;42.100;25.222;2023-01-29T02:55:34;100345.75;;;3.53;100.00
8641;BME280;4358;42.100;25.222;2023-01-29T02:58:06;100346.44;;;3.59;100.00
8641;BME280;4358;42.100;25.222;2023-01-29T03:00:38;100344.38;;;3.69;100.00
8641;BME280;4358;42.100;25.222;2023-01-29T03:03:09;100330.00;;;3.53;100.00
8641;BME280;4358;42.100;25.222;2023-01-29T03:05:44;100351.66;;;3.61;100.00
8641;BME280;4358;42.100;25.222;2023-01-29T03:08:19;100347.72;;;3.74;100.00
8641;BME280;4358;42.100;25.222;2023-01-29T03:10:50;100355.34;;;3.81;100.00
8641;BME280;4358;42.100;25.222;2023-01-29T03:13:24;100361.94;;;3.93;100.00
8641;BME280;4358;42.100;25.222;2023-01-29T03:15:58;100361.66;;;3.76;100.00
8641;BME280;4358;42.100;25.222;2023-01-29T03:18:31;100368.19;;;3.63;100.00
8641;BME280;4358;42.100;25.222;2023-01-29T03:21:05;100352.34;;;3.66;100.00
8641;BME280;4358;42.100;25.222;2023-01-29T03:23:56;100371.34;;;3.74;100.00
8641;BME280;4358;42.100;25.222;2023-01-29T03:26:41;100371.97;;;3.82;100.00
8641;BME280;4358;42.100;25.222;2023-01-29T03:29:28;100377.28;;;3.79;100.00
8641;BME280;4358;42.100;25.222;2023-01-29T03:32:15;100365.34;;;3.70;100.00
8641;BME280;4358;42.100;25.222;2023-01-29T03:34:47;100379.34;;;3.69;100.00
8641;BME280;4358;42.100;25.222;2023-01-29T03:37:20;100376.78;;;3.68;100.00
8641;BME280;4358;42.100;25.222;2023-01-29T03:39:48;100378.94;;;3.55;100.00
8641;BME280;4358;42.100;25.222;2023-01-29T03:42:19;100382.59;;;3.50;100.00
8641;BME280;4358;42.100;25.222;2023-01-29T03:44:56;100384.19;;;3.55;100.00
8641;BME280;4358;42.100;25.222;2023-01-29T03:47:38;100377.09;;;3.57;100.00
8641;BME280;4358;42.100;25.222;2023-01-29T03:50:11;100380.25;;;3.68;100.00
8641;BME280;4358;42.100;25.222;2023-01-29T03:52:46;100381.84;;;3.74;100.00
8641;BME280;4358;42.100;25.222;2023-01-29T03:55:18;100385.44;;;3.71;100.00
8641;BME280;4358;42.100;25.222;2023-01-29T03:57:54;100373.13;;;3.72;100.00
8641;BME280;4358;42.100;25.222;2023-01-29T04:00:27;100384.69;;;3.94;100.00
8641;BME280;4358;42.100;25.222;2023-01-29T04:03:02;100393.94;;;4.06;100.00
8641;BME280;4358;42.100;25.222;2023-01-29T04:05:37;100387.81;;;4.05;100.00
8641;BME280;4358;42.100;25.222;2023-01-29T04:08:10;100399.16;;;4.07;100.00
8641;BME280;4358;42.100;25.222;2023-01-29T04:10:42;100396.53;;;4.07;100.00
8641;BME280;4358;42.100;25.222;2023-01-29T04:13:12;100394.94;;;4.02;100.00
8641;BME280;4358;42.100;25.222;2023-01-29T04:15:44;100403.59;;;4.05;100.00
8641;BME280;4358;42.100;25.222;2023-01-29T04:18:14;100393.19;;;4.02;100.00
8641;BME280;4358;42.100;25.222;2023-01-29T04:20:41;100406.56;;;3.95;100.00
8641;BME280;4358;42.100;25.222;2023-01-29T04:23:19;100402.53;;;3.83;100.00
8641;BME280;4358;42.100;25.222;2023-01-29T04:25:55;100409.72;;;3.78;100.00
8641;BME280;4358;42.100;25.222;2023-01-29T04:28:27;100410.91;;;3.68;100.00
8641;BME280;4358;42.100;25.222;2023-01-29T04:31:05;100416.25;;;3.65;100.00
8641;BME280;4358;42.100;25.222;2023-01-29T04:33:42;100416.25;;;3.65;100.00
8641;BME280;4358;42.100;25.222;2023-01-29T04:36:19;100420.78;;;3.60;100.00
8641;BME280;4358;42.100;25.222;2023-01-29T04:38:57;100418.34;;;3.54;100.00
8641;BME280;4358;42.100;25.222;2023-01-29T04:41:31;100419.94;;;3.59;100.00
8641;BME280;4358;42.100;25.222;2023-01-29T04:44:04;100419.88;;;3.61;100.00
8641;BME280;4358;42.100;25.222;2023-01-29T04:46:40;100417.38;;;3.56;100.00
8641;BME280;4358;42.100;25.222;2023-01-29T04:49:19;100422.41;;;3.64;100.00
8641;BME280;4358;42.100;25.222;2023-01-29T04:51:56;100421.66;;;3.60;100.00
8641;BME280;4358;42.100;25.222;2023-01-29T04:54:33;100420.78;;;3.60;100.00
8641;BME280;4358;42.100;25.222;2023-01-29T04:57:05;100416.47;;;3.57;100.00
8641;BME280;4358;42.100;25.222;2023-01-29T04:59:40;100431.91;;;3.68;100.00
8641;BME280;4358;42.100;25.222;2023-01-29T05:02:09;100429.38;;;3.65;100.00
8641;BME280;4358;42.100;25.222;2023-01-29T05:04:40;100435.38;;;3.68;100.00
8641;BME280;4358;42.100;25.222;2023-01-29T05:07:12;100441.50;;;3.69;100.00
8641;BME280;4358;42.100;25.222;2023-01-29T05:09:42;100436.47;;;3.61;100.00
8641;BME280;4358;42.100;25.222;2023-01-29T05:12:12;100434.63;;;3.65;100.00
8641;BME280;4358;42.100;25.222;2023-01-29T05:14:41;100440.56;;;3.71;100.00
8641;BME280;4358;42.100;25.222;2023-01-29T05:17:14;100439.69;;;3.71;100.00
8641;BME280;4358;42.100;25.222;2023-01-29T05:19:43;100442.22;;;3.74;100.00
8641;BME280;4358;42.100;25.222;2023-01-29T05:22:12;100439.41;;;3.80;100.00
8641;BME280;4358;42.100;25.222;2023-01-29T05:24:41;100442.94;;;3.79;100.00
8641;BME280;4358;42.100;25.222;2023-01-29T05:27:13;100437.59;;;3.82;100.00
8641;BME280;4358;42.100;25.222;2023-01-29T05:29:58;100429.94;;;3.74;100.00
8641;BME280;4358;42.100;25.222;2023-01-29T05:32:25;100444.47;;;3.86;100.00
8641;BME280;4358;42.100;25.222;2023-01-29T05:34:53;100450.28;;;3.96;100.00
8641;BME280;4358;42.100;25.222;2023-01-29T05:37:20;100447.41;;;4.03;100.00
8641;BME280;4358;42.100;25.222;2023-01-29T05:39:47;100452.88;;;3.97;100.00
8641;BME280;4358;42.100;25.222;2023-01-29T05:42:13;100447.41;;;4.03;100.00
8641;BME280;4358;42.100;25.222;2023-01-29T05:44:40;100457.13;;;4.01;100.00
8641;BME280;4358;42.100;25.222;2023-01-29T05:47:07;100460.97;;;3.90;100.00
8641;BME280;4358;42.100;25.222;2023-01-29T05:49:34;100459.38;;;3.86;100.00
8641;BME280;4358;42.100;25.222;2023-01-29T05:52:02;100465.75;;;3.77;100.00
8641;BME280;4358;42.100;25.222;2023-01-29T05:54:29;100467.19;;;3.58;100.00
8641;BME280;4358;42.100;25.222;2023-01-29T05:56:55;100470.81;;;3.54;100.00
8641;BME280;4358;42.100;25.222;2023-01-29T05:59:22;100471.09;;;3.45;100.00
8641;BME280;4358;42.100;25.222;2023-01-29T06:01:49;100475.97;;;3.27;100.00
8641;BME280;4358;42.100;25.222;2023-01-29T06:04:16;100477.25;;;3.13;100.00
8641;BME280;4358;42.100;25.222;2023-01-29T06:06:43;100478.19;;;3.10;100.00
8641;BME280;4358;42.100;25.222;2023-01-29T06:09:11;100469.69;;;3.02;100.00
8641;BME280;4358;42.100;25.222;2023-01-29T06:11:38;100481.91;;;3.03;100.00
8641;BME280;4358;42.100;25.222;2023-01-29T06:14:05;100480.22;;;2.99;100.00
8641;BME280;4358;42.100;25.222;2023-01-29T06:16:32;100482.06;;;2.97;100.00
8641;BME280;4358;42.100;25.222;2023-01-29T06:18:58;100486.59;;;2.90;100.00
8641;BME280;4358;42.100;25.222;2023-01-29T06:21:25;100490.19;;;2.86;100.00
8641;BME280;4358;42.100;25.222;2023-01-29T06:23:52;100484.50;;;2.71;100.00
8641;BME280;4358;42.100;25.222;2023-01-29T06:26:20;100488.47;;;2.85;100.00
8641;BME280;4358;42.100;25.222;2023-01-29T06:28:48;100500.75;;;2.83;100.00
8641;BME280;4358;42.100;25.222;2023-01-29T06:31:15;100493.75;;;2.84;100.00
8641;BME280;4358;42.100;25.222;2023-01-29T06:33:43;100501.63;;;2.84;100.00
8641;BME280;4358;42.100;25.222;2023-01-29T06:36:09;100499.88;;;2.83;100.00
8641;BME280;4358;42.100;25.222;2023-01-29T06:38:36;100508.63;;;2.83;100.00
8641;BME280;4358;42.100;25.222;2023-01-29T06:41:08;100507.84;;;2.80;100.00
8641;BME280;4358;42.100;25.222;2023-01-29T06:43:36;100504.84;;;2.61;100.00
8641;BME280;4358;42.100;25.222;2023-01-29T06:46:06;100507.19;;;2.72;100.00
8641;BME280;4358;42.100;25.222;2023-01-29T06:48:33;100514.81;;;2.81;100.00
8641;BME280;4358;42.100;25.222;2023-01-29T06:51:01;100510.47;;;2.80;100.00
8641;BME280;4358;42.100;25.222;2023-01-29T06:53:29;100516.44;;;2.85;100.00
8641;BME280;4358;42.100;25.222;2023-01-29T06:55:55;100519.22;;;2.79;100.00
8641;BME280;4358;42.100;25.222;2023-01-29T06:58:22;100518.97;;;2.88;100.00
8641;BME280;4358;42.100;25.222;2023-01-29T07:00:51;100520.66;;;2.92;100.00
8641;BME280;4358;42.100;25.222;2023-01-29T07:03:18;100529.31;;;2.94;100.00
8641;BME280;4358;42.100;25.222;2023-01-29T07:05:49;100528.53;;;2.90;100.00
8641;BME280;4358;42.100;25.222;2023-01-29T07:08:16;100531.03;;;2.95;100.00
8641;BME280;4358;42.100;25.222;2023-01-29T07:10:43;100529.25;;;2.97;100.00
8641;BME280;4358;42.100;25.222;2023-01-29T07:13:10;100534.44;;;2.98;100.00
8641;BME280;4358;42.100;25.222;2023-01-29T07:15:37;100530.63;;;3.10;100.00
8641;BME280;4358;42.100;25.222;2023-01-29T07:18:05;100530.50;;;3.15;100.00
8641;BME280;4358;42.100;25.222;2023-01-29T07:20:37;100539.25;;;3.15;100.00
8641;BME280;4358;42.100;25.222;2023-01-29T07:23:04;100538.81;;;3.30;100.00
8641;BME280;4358;42.100;25.222;2023-01-29T07:25:32;100543.66;;;3.46;100.00
8641;BME280;4358;42.100;25.222;2023-01-29T07:27:59;100545.31;;;3.50;100.00
8641;BME280;4358;42.100;25.222;2023-01-29T07:30:26;100541.00;;;3.47;100.00
8641;BME280;4358;42.100;25.222;2023-01-29T07:32:53;100525.56;;;3.35;100.00
8641;BME280;4358;42.100;25.222;2023-01-29T07:35:22;100545.31;;;3.50;100.00
8641;BME280;4358;42.100;25.222;2023-01-29T07:37:49;100541.84;;;3.48;100.00
8641;BME280;4358;42.100;25.222;2023-01-29T07:40:16;100540.81;;;3.53;100.00
8641;BME280;4358;42.100;25.222;2023-01-29T07:42:43;100544.31;;;3.54;100.00
8641;BME280;4358;42.100;25.222;2023-01-29T07:45:11;100537.28;;;3.56;100.00
8641;BME280;4358;42.100;25.222;2023-01-29T07:47:38;100542.28;;;3.63;100.00
8641;BME280;4358;42.100;25.222;2023-01-29T07:50:06;100544.50;;;3.77;100.00
8641;BME280;4358;42.100;25.222;2023-01-29T07:52:34;100546.34;;;3.75;100.00
8641;BME280;4358;42.100;25.222;2023-01-29T07:55:01;100544.91;;;3.63;100.00
8641;BME280;4358;42.100;25.222;2023-01-29T07:57:28;100548.41;;;3.64;100.00
8641;BME280;4358;42.100;25.222;2023-01-29T07:59:55;100548.28;;;3.67;100.00
8641;BME280;4358;42.100;25.222;2023-01-29T08:02:22;100551.00;;;3.65;100.00
8641;BME280;4358;42.100;25.222;2023-01-29T08:04:49;100562.25;;;3.69;100.00
8641;BME280;4358;42.100;25.222;2023-01-29T08:07:16;100560.34;;;3.74;100.00
8641;BME280;4358;42.100;25.222;2023-01-29T08:09:44;100557.69;;;3.75;100.00
8641;BME280;4358;42.100;25.222;2023-01-29T08:12:11;100570.41;;;3.89;100.00
8641;BME280;4358;42.100;25.222;2023-01-29T08:14:37;100570.41;;;3.89;100.00
8641;BME280;4358;42.100;25.222;2023-01-29T08:17:04;100570.34;;;3.92;100.00
8641;BME280;4358;42.100;25.222;2023-01-29T08:19:31;100571.97;;;3.96;100.00
8641;BME280;4358;42.100;25.222;2023-01-29T08:21:58;100570.25;;;3.95;100.00
8641;BME280;4358;42.100;25.222;2023-01-29T08:24:24;100571.06;;;3.97;100.00
8641;BME280;4358;42.100;25.222;2023-01-29T08:26:53;100574.09;;;4.13;100.00
8641;BME280;4358;42.100;25.222;2023-01-29T08:29:19;100578.81;;;4.30;100.00
8641;BME280;4358;42.100;25.222;2023-01-29T08:31:46;100574.97;;;4.41;100.00
8641;BME280;4358;42.100;25.222;2023-01-29T08:34:13;100582.94;;;4.38;100.00
8641;BME280;4358;42.100;25.222;2023-01-29T08:36:40;100571.25;;;4.19;100.00
8641;BME280;4358;42.100;25.222;2023-01-29T08:39:07;100588.56;;;4.26;100.00
8641;BME280;4358;42.100;25.222;2023-01-29T08:41:34;100588.53;;;4.28;100.00
8641;BME280;4358;42.100;25.222;2023-01-29T08:44:02;100591.78;;;4.36;100.00
8641;BME280;4358;42.100;25.222;2023-01-29T08:46:29;100591.88;;;4.33;100.00
8641;BME280;4358;42.100;25.222;2023-01-29T08:48:57;100592.66;;;4.35;100.00
8641;BME280;4358;42.100;25.222;2023-01-29T08:51:24;100595.22;;;4.38;100.00
8641;BME280;4358;42.100;25.222;2023-01-29T08:53:52;100595.75;;;4.49;100.00
8641;BME280;4358;42.100;25.222;2023-01-29T08:56:19;100597.16;;;4.60;100.00
8641;BME280;4358;42.100;25.222;2023-01-29T08:58:46;100590.25;;;4.56;100.00
8641;BME280;4358;42.100;25.222;2023-01-29T09:01:14;100598.19;;;4.55;100.00
8641;BME280;4358;42.100;25.222;2023-01-29T09:03:41;100602.50;;;4.57;100.00
8641;BME280;4358;42.100;25.222;2023-01-29T09:06:10;100600.13;;;4.50;100.00
8641;BME280;4358;42.100;25.222;2023-01-29T09:08:38;100595.66;;;4.52;100.00
8641;BME280;4358;42.100;25.222;2023-01-29T09:11:05;100589.50;;;4.53;100.00
8641;BME280;4358;42.100;25.222;2023-01-29T09:13:32;100599.00;;;4.57;100.00
8641;BME280;4358;42.100;25.222;2023-01-29T09:15:59;100588.44;;;4.58;100.00
8641;BME280;4358;42.100;25.222;2023-01-29T09:18:28;100590.53;;;4.75;100.00
8641;BME280;4358;42.100;25.222;2023-01-29T09:20:56;100590.34;;;4.81;100.00
8641;BME280;4358;42.100;25.222;2023-01-29T09:23:23;100585.72;;;4.88;100.00
8641;BME280;4358;42.100;25.222;2023-01-29T09:25:49;100591.59;;;4.96;100.00
8641;BME280;4358;42.100;25.222;2023-01-29T09:28:16;100589.91;;;4.93;100.00
8641;BME280;4358;42.100;25.222;2023-01-29T09:30:43;100585.09;;;4.81;100.00
8641;BME280;4358;42.100;25.222;2023-01-29T09:33:10;100589.31;;;4.85;100.00
8641;BME280;4358;42.100;25.222;2023-01-29T09:35:40;100589.56;;;4.78;100.00
8641;BME280;4358;42.100;25.222;2023-01-29T09:38:08;100591.66;;;4.94;100.00
8641;BME280;4358;42.100;25.222;2023-01-29T09:40:41;100593.88;;;5.06;100.00
8641;BME280;4358;42.100;25.222;2023-01-29T09:43:15;100591.84;;;4.88;100.00
8641;BME280;4358;42.100;25.222;2023-01-29T09:45:51;100593.09;;;4.77;100.00
8641;BME280;4358;42.100;25.222;2023-01-29T09:48:22;100593.41;;;4.94;100.00
8641;BME280;4358;42.100;25.222;2023-01-29T09:50:56;100594.94;;;5.01;100.00
8641;BME280;4358;42.100;25.222;2023-01-29T09:53:28;100585.28;;;5.01;100.00
8641;BME280;4358;42.100;25.222;2023-01-29T09:56:01;100593.38;;;4.95;100.00
8641;BME280;4358;42.100;25.222;2023-01-29T09:58:32;100588.91;;;4.97;100.00
8641;BME280;4358;42.100;25.222;2023-01-29T10:01:09;100585.63;;;4.91;100.00
8641;BME280;4358;42.100;25.222;2023-01-29T10:04:15;100578.84;;;4.84;100.00
8641;BME280;4358;42.100;25.222;2023-01-29T10:06:58;100587.63;;;4.83;100.00
8641;BME280;4358;42.100;25.222;2023-01-29T10:09:49;100575.63;;;4.76;100.00
8641;BME280;4358;42.100;25.222;2023-01-29T10:12:40;100567.38;;;4.86;100.00
8641;BME280;4358;42.100;25.222;2023-01-29T10:15:20;100566.16;;;4.96;100.00
8641;BME280;4358;42.100;25.222;2023-01-29T10:18:03;100561.69;;;4.98;100.00
8641;BME280;4358;42.100;25.222;2023-01-29T10:20:45;100566.53;;;5.10;100.00
8641;BME280;4358;42.100;25.222;2023-01-29T10:23:20;100561.16;;;5.13;100.00
8641;BME280;4358;42.100;25.222;2023-01-29T10:25:49;100558.97;;;5.01;100.00
8641;BME280;4358;42.100;25.222;2023-01-29T10:28:19;100554.84;;;5.19;100.00
8641;BME280;4358;42.100;25.222;2023-01-29T10:30:48;100547.44;;;5.05;100.00
8641;BME280;4358;42.100;25.222;2023-01-29T10:33:26;100547.34;;;4.82;100.00
8641;BME280;4358;42.100;25.222;2023-01-29T10:36:01;100524.09;;;4.70;100.00
8641;BME280;4358;42.100;25.222;2023-01-29T10:38:39;100541.97;;;4.59;100.00
8641;BME280;4358;42.100;25.222;2023-01-29T10:41:22;100538.53;;;4.57;100.00
8641;BME280;4358;42.100;25.222;2023-01-29T10:44:12;100529.53;;;4.64;100.00
8641;BME280;4358;42.100;25.222;2023-01-29T10:46:53;100522.38;;;4.69;100.00
8641;BME280;4358;42.100;25.222;2023-01-29T10:49:49;100522.75;;;4.83;100.00
8641;BME280;4358;42.100;25.222;2023-01-29T10:52:37;100524.13;;;4.68;100.00
8641;BME280;4358;42.100;25.222;2023-01-29T10:55:18;100528.50;;;4.69;100.00
8641;BME280;4358;42.100;25.222;2023-01-29T10:57:56;100521.00;;;4.57;100.00
8641;BME280;4358;42.100;25.222;2023-01-29T11:00:29;100524.28;;;4.64;100.00
8641;BME280;4358;42.100;25.222;2023-01-29T11:03:12;100521.63;;;4.65;100.00
8641;BME280;4358;42.100;25.222;2023-01-29T11:05:44;100512.59;;;4.73;100.00
8641;BME280;4358;42.100;25.222;2023-01-29T11:08:19;100505.75;;;4.93;100.00
8641;BME280;4358;42.100;25.222;2023-01-29T11:10:53;100510.06;;;5.21;100.00
8641;BME280;4358;42.100;25.222;2023-01-29T11:13:21;100505.75;;;5.43;100.00
8641;BME280;4358;42.100;25.222;2023-01-29T11:15:52;100507.66;;;5.63;100.00
8641;BME280;4358;42.100;25.222;2023-01-29T11:18:19;100511.78;;;5.70;100.00
8641;BME280;4358;42.100;25.222;2023-01-29T11:20:59;100505.75;;;5.66;100.00
8641;BME280;4358;42.100;25.222;2023-01-29T11:23:28;100508.97;;;5.74;100.00
8641;BME280;4358;42.100;25.222;2023-01-29T11:25:57;100502.19;;;5.67;100.00
8641;BME280;4358;42.100;25.222;2023-01-29T11:28:36;100505.81;;;5.65;100.00
8641;BME280;4358;42.100;25.222;2023-01-29T11:31:14;100499.56;;;5.67;100.00
8641;BME280;4358;42.100;25.222;2023-01-29T11:33:41;100488.31;;;5.64;100.00
8641;BME280;4358;42.100;25.222;2023-01-29T11:36:29;100492.56;;;5.66;100.00
8641;BME280;4358;42.100;25.222;2023-01-29T11:39:14;100487.94;;;5.73;100.00
8641;BME280;4358;42.100;25.222;2023-01-29T11:41:47;100487.22;;;5.69;100.00
8641;BME280;4358;42.100;25.222;2023-01-29T11:44:19;100486.84;;;5.78;100.00
8641;BME280;4358;42.100;25.222;2023-01-29T11:46:46;100485.09;;;5.79;100.00
8641;BME280;4358;42.100;25.222;2023-01-29T11:49:22;100482.28;;;5.83;100.00
8641;BME280;4358;42.100;25.222;2023-01-29T11:51:52;100476.09;;;5.84;100.00
8641;BME280;4358;42.100;25.222;2023-01-29T11:54:22;100483.09;;;5.85;100.00
8641;BME280;4358;42.100;25.222;2023-01-29T11:56:54;100463.69;;;5.86;100.00
8641;BME280;4358;42.100;25.222;2023-01-29T11:59:29;100474.84;;;5.94;100.00
8641;BME280;4358;42.100;25.222;2023-01-29T12:02:05;100474.72;;;5.74;100.00
8641;BME280;4358;42.100;25.222;2023-01-29T12:04:38;100471.47;;;5.68;100.00
8641;BME280;4358;42.100;25.222;2023-01-29T12:07:11;100474.28;;;5.63;100.00
8641;BME280;4358;42.100;25.222;2023-01-29T12:09:38;100464.88;;;5.56;100.00
8641;BME280;4358;42.100;25.222;2023-01-29T12:12:27;100468.31;;;5.58;100.00
8641;BME280;4358;42.100;25.222;2023-01-29T12:15:13;100457.66;;;5.61;100.00
8641;BME280;4358;42.100;25.222;2023-01-29T12:17:44;100459.09;;;5.46;100.00
8641;BME280;4358;42.100;25.222;2023-01-29T12:20:14;100456.13;;;5.32;100.00
8641;BME280;4358;42.100;25.222;2023-01-29T12:22:47;100456.41;;;5.48;100.00
8641;BME280;4358;42.100;25.222;2023-01-29T12:25:20;100459.22;;;5.43;100.00
8641;BME280;4358;42.100;25.222;2023-01-29T12:27:55;100453.78;;;5.48;100.00
8641;BME280;4358;42.100;25.222;2023-01-29T12:30:28;100453.09;;;5.43;100.00
8641;BME280;4358;42.100;25.222;2023-01-29T12:33:01;100448.84;;;5.62;100.00
8641;BME280;4358;42.100;25.222;2023-01-29T12:35:32;100451.44;;;5.64;100.00
8641;BME280;4358;42.100;25.222;2023-01-29T12:38:02;100453.38;;;5.59;100.00
8641;BME280;4358;42.100;25.222;2023-01-29T12:40:38;100463.69;;;5.86;100.00
8641;BME280;4358;42.100;25.222;2023-01-29T12:43:13;100448.50;;;5.71;100.00
8641;BME280;4358;42.100;25.222;2023-01-29T12:45:45;100456.66;;;5.88;100.00
8641;BME280;4358;42.100;25.222;2023-01-29T12:48:18;100450.78;;;6.04;100.00
8641;BME280;4358;42.100;25.222;2023-01-29T12:50:48;100448.63;;;6.13;100.00
8641;BME280;4358;42.100;25.222;2023-01-29T12:53:24;100455.94;;;6.07;100.00
8641;BME280;4358;42.100;25.222;2023-01-29T12:55:54;100456.84;;;6.06;100.00
8641;BME280;4358;42.100;25.222;2023-01-29T12:58:29;100452.13;;;6.14;100.00
8641;BME280;4358;42.100;25.222;2023-01-29T13:01:02;100456.41;;;6.16;100.00
8641;BME280;4358;42.100;25.222;2023-01-29T13:03:33;100461.38;;;6.24;100.00
8641;BME280;4358;42.100;25.222;2023-01-29T13:06:06;100458.31;;;6.13;100.00
8641;BME280;4358;42.100;25.222;2023-01-29T13:08:38;100456.28;;;6.19;100.00
8641;BME280;4358;42.100;25.222;2023-01-29T13:11:12;100457.94;;;6.22;100.00
8641;BME280;4358;42.100;25.222;2023-01-29T13:13:44;100461.88;;;6.12;100.00
8641;BME280;4358;42.100;25.222;2023-01-29T13:16:19;100462.28;;;6.23;100.00
8641;BME280;4358;42.100;25.222;2023-01-29T13:18:52;100466.34;;;6.10;100.00
8641;BME280;4358;42.100;25.222;2023-01-29T13:21:24;100462.66;;;6.14;100.00
8641;BME280;4358;42.100;25.222;2023-01-29T13:23:55;100458.72;;;6.24;100.00